sensor_id;sensor_type;location;lat;lon;timestamp;temperature;humidity
68248;SHT30;55064;49.636;12.164;2022-12-18T00:00:59;-11.23;91.36
68248;SHT30;55064;49.636;12.164;2022-12-18T00:03:26;-11.08;91.85
68248;SHT30;55064;49.636;12.164;2022-12-18T00:05:52;-10.92;91.70
68248;SHT30;55064;49.636;12.164;2022-12-18T00:08:20;-10.83;90.89
68248;SHT30;55064;49.636;12.164;2022-12-18T00:10:48;-10.71;91.72
68248;SHT30;55064;49.636;12.164;2022-12-18T00:13:15;-10.39;92.65
68248;SHT30;55064;49.636;12.164;2022-12-18T00:15:43;-10.33;91.72
68248;SHT30;55064;49.636;12.164;2022-12-18T00:18:09;-10.21;91.50
68248;SHT30;55064;49.636;12.164;2022-12-18T00:20:40;-10.14;90.88
68248;SHT30;55064;49.636;12.164;2022-12-18T00:23:08;-10.04;91.85
68248;SHT30;55064;49.636;12.164;2022-12-18T00:25:34;-9.88;92.36
68248;SHT30;55064;49.636;12.164;2022-12-18T00:28:00;-9.75;92.33
68248;SHT30;55064;49.636;12.164;2022-12-18T00:30:26;-9.73;91.86
68248;SHT30;55064;49.636;12.164;2022-12-18T00:32:54;-9.54;91.75
68248;SHT30;55064;49.636;12.164;2022-12-18T00:35:20;-9.50;91.43
68248;SHT30;55064;49.636;12.164;2022-12-18T00:37:48;-9.46;90.81
68248;SHT30;55064;49.636;12.164;2022-12-18T00:40:17;-9.38;91.19
68248;SHT30;55064;49.636;12.164;2022-12-18T00:42:45;-9.35;91.14
68248;SHT30;55064;49.636;12.164;2022-12-18T00:45:28;-9.32;91.43
68248;SHT30;55064;49.636;12.164;2022-12-18T00:47:54;-9.26;91.68
68248;SHT30;55064;49.636;12.164;2022-12-18T00:50:25;-9.25;92.13
68248;SHT30;55064;49.636;12.164;2022-12-18T00:52:51;-9.25;92.81
68248;SHT30;55064;49.636;12.164;2022-12-18T00:55:19;-9.19;92.95
68248;SHT30;55064;49.636;12.164;2022-12-18T00:57:44;-9.18;93.97
68248;SHT30;55064;49.636;12.164;2022-12-18T01:00:16;-9.12;94.26
68248;SHT30;55064;49.636;12.164;2022-12-18T01:02:44;-9.12;94.42
68248;SHT30;55064;49.636;12.164;2022-12-18T01:05:11;-9.14;94.70
68248;SHT30;55064;49.636;12.164;2022-12-18T01:07:39;-9.12;94.80
68248;SHT30;55064;49.636;12.164;2022-12-18T01:10:06;-9.08;94.79
68248;SHT30;55064;49.636;12.164;2022-12-18T01:12:32;-9.12;94.66
68248;SHT30;55064;49.636;12.164;2022-12-18T01:15:00;-9.12;94.92
68248;SHT30;55064;49.636;12.164;2022-12-18T01:17:25;-9.15;95.14
68248;SHT30;55064;49.636;12.164;2022-12-18T01:19:51;-9.12;95.19
68248;SHT30;55064;49.636;12.164;2022-12-18T01:22:18;-9.05;95.28
68248;SHT30;55064;49.636;12.164;2022-12-18T01:24:48;-9.08;95.34
68248;SHT30;55064;49.636;12.164;2022-12-18T01:27:21;-9.12;95.86
68248;SHT30;55064;49.636;12.164;2022-12-18T01:29:47;-9.12;96.08
68248;SHT30;55064;49.636;12.164;2022-12-18T01:32:17;-9.11;96.43
68248;SHT30;55064;49.636;12.164;2022-12-18T01:34:45;-9.01;96.77
68248;SHT30;55064;49.636;12.164;2022-12-18T01:37:11;-8.91;96.62
68248;SHT30;55064;49.636;12.164;2022-12-18T01:39:41;-8.83;96.42
68248;SHT30;55064;49.636;12.164;2022-12-18T01:42:12;-8.77;96.36
68248;SHT30;55064;49.636;12.164;2022-12-18T01:47:52;-8.76;96.01
68248;SHT30;55064;49.636;12.164;2022-12-18T01:50:24;-8.73;95.87
68248;SHT30;55064;49.636;12.164;2022-12-18T01:55:32;-8.61;96.08
68248;SHT30;55064;49.636;12.164;2022-12-18T01:58:00;-8.56;96.35
68248;SHT30;55064;49.636;12.164;2022-12-18T02:00:28;-8.57;96.38
68248;SHT30;55064;49.636;12.164;2022-12-18T02:02:56;-8.53;96.48
68248;SHT30;55064;49.636;12.164;2022-12-18T02:05:58;-8.46;96.38
68248;SHT30;55064;49.636;12.164;2022-12-18T02:11:41;-8.46;97.58
68248;SHT30;55064;49.636;12.164;2022-12-18T02:14:21;-8.42;97.14
68248;SHT30;55064;49.636;12.164;2022-12-18T02:17:01;-8.48;97.12
68248;SHT30;55064;49.636;12.164;2022-12-18T02:19:44;-8.46;96.69
68248;SHT30;55064;49.636;12.164;2022-12-18T02:22:27;-8.54;96.49
68248;SHT30;55064;49.636;12.164;2022-12-18T02:25:24;-8.56;96.70
68248;SHT30;55064;49.636;12.164;2022-12-18T02:27:54;-8.71;96.57
68248;SHT30;55064;49.636;12.164;2022-12-18T02:30:21;-8.71;96.62
68248;SHT30;55064;49.636;12.164;2022-12-18T02:32:51;-8.74;96.59
68248;SHT30;55064;49.636;12.164;2022-12-18T02:35:27;-8.81;97.11
68248;SHT30;55064;49.636;12.164;2022-12-18T02:37:57;-8.86;96.73
68248;SHT30;55064;49.636;12.164;2022-12-18T02:40:29;-8.88;96.72
68248;SHT30;55064;49.636;12.164;2022-12-18T02:42:55;-8.95;96.53
68248;SHT30;55064;49.636;12.164;2022-12-18T02:45:33;-8.95;96.13
68248;SHT30;55064;49.636;12.164;2022-12-18T02:48:00;-8.86;95.66
68248;SHT30;55064;49.636;12.164;2022-12-18T02:50:36;-8.93;95.12
68248;SHT30;55064;49.636;12.164;2022-12-18T02:53:17;-9.03;95.10
68248;SHT30;55064;49.636;12.164;2022-12-18T03:01:03;-9.01;95.35
68248;SHT30;55064;49.636;12.164;2022-12-18T03:03:40;-8.94;95.10
68248;SHT30;55064;49.636;12.164;2022-12-18T03:06:14;-8.98;94.63
68248;SHT30;55064;49.636;12.164;2022-12-18T03:08:51;-9.03;94.52
68248;SHT30;55064;49.636;12.164;2022-12-18T03:11:19;-9.00;94.68
68248;SHT30;55064;49.636;12.164;2022-12-18T03:14:06;-9.07;94.55
68248;SHT30;55064;49.636;12.164;2022-12-18T03:16:35;-9.09;94.36
68248;SHT30;55064;49.636;12.164;2022-12-18T03:19:15;-9.15;94.39
68248;SHT30;55064;49.636;12.164;2022-12-18T03:21:57;-9.24;93.78
68248;SHT30;55064;49.636;12.164;2022-12-18T03:24:27;-9.22;94.54
68248;SHT30;55064;49.636;12.164;2022-12-18T03:26:59;-9.24;94.72
68248;SHT30;55064;49.636;12.164;2022-12-18T03:29:35;-9.26;94.74
68248;SHT30;55064;49.636;12.164;2022-12-18T03:32:33;-9.25;94.11
68248;SHT30;55064;49.636;12.164;2022-12-18T03:35:04;-9.29;94.05
68248;SHT30;55064;49.636;12.164;2022-12-18T03:37:31;-9.42;94.35
68248;SHT30;55064;49.636;12.164;2022-12-18T03:39:59;-9.38;94.81
68248;SHT30;55064;49.636;12.164;2022-12-18T03:42:31;-9.43;94.64
68248;SHT30;55064;49.636;12.164;2022-12-18T03:50:33;-9.40;93.94
68248;SHT30;55064;49.636;12.164;2022-12-18T03:53:23;-9.43;93.35
68248;SHT30;55064;49.636;12.164;2022-12-18T03:55:51;-9.49;93.56
68248;SHT30;55064;49.636;12.164;2022-12-18T03:58:23;-9.50;93.55
68248;SHT30;55064;49.636;12.164;2022-12-18T04:00:51;-9.59;93.10
68248;SHT30;55064;49.636;12.164;2022-12-18T04:03:18;-9.59;92.01
68248;SHT30;55064;49.636;12.164;2022-12-18T04:05:45;-9.64;91.42
68248;SHT30;55064;49.636;12.164;2022-12-18T04:08:15;-9.71;91.35
68248;SHT30;55064;49.636;12.164;2022-12-18T04:10:45;-9.80;91.83
68248;SHT30;55064;49.636;12.164;2022-12-18T04:13:13;-9.81;93.26
68248;SHT30;55064;49.636;12.164;2022-12-18T04:15:50;-9.85;94.01
68248;SHT30;55064;49.636;12.164;2022-12-18T04:18:16;-9.80;93.88
68248;SHT30;55064;49.636;12.164;2022-12-18T04:20:41;-9.81;93.67
68248;SHT30;55064;49.636;12.164;2022-12-18T04:23:09;-9.87;92.92
68248;SHT30;55064;49.636;12.164;2022-12-18T04:25:34;-9.99;93.51
68248;SHT30;55064;49.636;12.164;2022-12-18T04:27:59;-10.05;94.31
68248;SHT30;55064;49.636;12.164;2022-12-18T04:30:27;-10.04;94.38
68248;SHT30;55064;49.636;12.164;2022-12-18T04:32:52;-10.07;94.41
68248;SHT30;55064;49.636;12.164;2022-12-18T04:35:20;-10.12;93.99
68248;SHT30;55064;49.636;12.164;2022-12-18T04:37:45;-10.22;94.10
68248;SHT30;55064;49.636;12.164;2022-12-18T04:40:13;-10.30;94.05
68248;SHT30;55064;49.636;12.164;2022-12-18T04:42:40;-10.33;94.43
68248;SHT30;55064;49.636;12.164;2022-12-18T04:45:08;-10.35;94.23
68248;SHT30;55064;49.636;12.164;2022-12-18T04:47:33;-10.37;93.57
68248;SHT30;55064;49.636;12.164;2022-12-18T04:49:59;-10.45;93.21
68248;SHT30;55064;49.636;12.164;2022-12-18T04:52:26;-10.57;92.71
68248;SHT30;55064;49.636;12.164;2022-12-18T04:54:54;-10.60;93.10
68248;SHT30;55064;49.636;12.164;2022-12-18T04:57:22;-10.56;92.81
68248;SHT30;55064;49.636;12.164;2022-12-18T04:59:47;-10.80;91.67
68248;SHT30;55064;49.636;12.164;2022-12-18T05:02:15;-10.94;90.94
68248;SHT30;55064;49.636;12.164;2022-12-18T05:04:42;-11.01;90.44
68248;SHT30;55064;49.636;12.164;2022-12-18T05:07:08;-11.02;90.32
68248;SHT30;55064;49.636;12.164;2022-12-18T05:09:36;-11.07;89.85
68248;SHT30;55064;49.636;12.164;2022-12-18T05:12:01;-11.15;89.59
68248;SHT30;55064;49.636;12.164;2022-12-18T05:14:26;-11.16;89.85
68248;SHT30;55064;49.636;12.164;2022-12-18T05:16:54;-11.18;89.69
68248;SHT30;55064;49.636;12.164;2022-12-18T05:19:21;-11.18;89.70
68248;SHT30;55064;49.636;12.164;2022-12-18T05:21:47;-11.16;90.00
68248;SHT30;55064;49.636;12.164;2022-12-18T05:24:17;-11.14;90.00
68248;SHT30;55064;49.636;12.164;2022-12-18T05:26:42;-11.02;90.12
68248;SHT30;55064;49.636;12.164;2022-12-18T05:29:10;-10.95;90.05
68248;SHT30;55064;49.636;12.164;2022-12-18T05:31:40;-10.88;90.86
68248;SHT30;55064;49.636;12.164;2022-12-18T05:34:05;-10.83;90.83
68248;SHT30;55064;49.636;12.164;2022-12-18T05:36:31;-10.80;90.48
68248;SHT30;55064;49.636;12.164;2022-12-18T05:38:56;-10.80;90.82
68248;SHT30;55064;49.636;12.164;2022-12-18T05:41:25;-10.70;91.25
68248;SHT30;55064;49.636;12.164;2022-12-18T05:43:51;-10.70;91.80
68248;SHT30;55064;49.636;12.164;2022-12-18T05:46:17;-10.71;92.25
68248;SHT30;55064;49.636;12.164;2022-12-18T05:48:43;-10.64;93.04
68248;SHT30;55064;49.636;12.164;2022-12-18T05:51:17;-10.61;92.82
68248;SHT30;55064;49.636;12.164;2022-12-18T05:53:45;-10.61;92.46
68248;SHT30;55064;49.636;12.164;2022-12-18T05:56:14;-10.54;92.26
68248;SHT30;55064;49.636;12.164;2022-12-18T05:58:43;-10.54;91.76
68248;SHT30;55064;49.636;12.164;2022-12-18T06:03:36;-10.57;92.42
68248;SHT30;55064;49.636;12.164;2022-12-18T06:06:02;-10.63;92.74
68248;SHT30;55064;49.636;12.164;2022-12-18T06:08:32;-10.60;93.25
68248;SHT30;55064;49.636;12.164;2022-12-18T06:11:00;-10.52;92.97
68248;SHT30;55064;49.636;12.164;2022-12-18T06:13:25;-10.54;92.97
68248;SHT30;55064;49.636;12.164;2022-12-18T06:15:50;-10.53;92.84
68248;SHT30;55064;49.636;12.164;2022-12-18T06:18:20;-10.60;92.71
68248;SHT30;55064;49.636;12.164;2022-12-18T06:20:54;-10.63;92.88
68248;SHT30;55064;49.636;12.164;2022-12-18T06:23:25;-10.70;93.07
68248;SHT30;55064;49.636;12.164;2022-12-18T06:25:50;-10.87;93.66
68248;SHT30;55064;49.636;12.164;2022-12-18T06:28:15;-10.84;93.37
68248;SHT30;55064;49.636;12.164;2022-12-18T06:30:45;-10.87;93.56
68248;SHT30;55064;49.636;12.164;2022-12-18T06:33:10;-10.88;93.66
68248;SHT30;55064;49.636;12.164;2022-12-18T06:35:36;-10.88;93.41
68248;SHT30;55064;49.636;12.164;2022-12-18T06:38:04;-11.00;93.38
68248;SHT30;55064;49.636;12.164;2022-12-18T06:40:29;-11.01;93.72
68248;SHT30;55064;49.636;12.164;2022-12-18T06:42:57;-11.02;93.51
68248;SHT30;55064;49.636;12.164;2022-12-18T06:45:22;-11.01;93.33
68248;SHT30;55064;49.636;12.164;2022-12-18T06:47:50;-11.01;92.56
68248;SHT30;55064;49.636;12.164;2022-12-18T06:50:16;-11.08;92.38
68248;SHT30;55064;49.636;12.164;2022-12-18T06:52:44;-11.09;92.27
68248;SHT30;55064;49.636;12.164;2022-12-18T06:55:12;-11.18;90.85
68248;SHT30;55064;49.636;12.164;2022-12-18T06:57:37;-11.28;90.80
68248;SHT30;55064;49.636;12.164;2022-12-18T07:00:05;-11.23;90.74
68248;SHT30;55064;49.636;12.164;2022-12-18T07:02:33;-11.30;90.43
68248;SHT30;55064;49.636;12.164;2022-12-18T07:04:59;-11.35;90.25
68248;SHT30;55064;49.636;12.164;2022-12-18T07:07:26;-11.36;90.48
68248;SHT30;55064;49.636;12.164;2022-12-18T07:09:52;-11.39;90.00
68248;SHT30;55064;49.636;12.164;2022-12-18T07:12:17;-11.47;89.45
68248;SHT30;55064;49.636;12.164;2022-12-18T07:14:43;-11.71;89.88
68248;SHT30;55064;49.636;12.164;2022-12-18T07:17:08;-11.82;91.75
68248;SHT30;55064;49.636;12.164;2022-12-18T07:19:34;-11.89;92.95
68248;SHT30;55064;49.636;12.164;2022-12-18T07:22:02;-11.99;93.79
68248;SHT30;55064;49.636;12.164;2022-12-18T07:24:30;-12.01;94.20
68248;SHT30;55064;49.636;12.164;2022-12-18T07:26:59;-12.03;94.35
68248;SHT30;55064;49.636;12.164;2022-12-18T07:29:27;-11.98;94.10
68248;SHT30;55064;49.636;12.164;2022-12-18T07:31:53;-11.88;93.45
68248;SHT30;55064;49.636;12.164;2022-12-18T07:34:18;-11.85;92.84
68248;SHT30;55064;49.636;12.164;2022-12-18T07:36:44;-11.82;92.35
68248;SHT30;55064;49.636;12.164;2022-12-18T07:39:11;-11.77;91.75
68248;SHT30;55064;49.636;12.164;2022-12-18T07:41:38;-11.66;91.84
68248;SHT30;55064;49.636;12.164;2022-12-18T07:44:09;-11.61;91.49
68248;SHT30;55064;49.636;12.164;2022-12-18T07:46:40;-11.58;90.73
68248;SHT30;55064;49.636;12.164;2022-12-18T07:49:08;-11.60;89.31
68248;SHT30;55064;49.636;12.164;2022-12-18T07:51:35;-11.64;89.09
68248;SHT30;55064;49.636;12.164;2022-12-18T07:54:01;-11.64;88.72
68248;SHT30;55064;49.636;12.164;2022-12-18T07:56:26;-11.70;88.62
68248;SHT30;55064;49.636;12.164;2022-12-18T07:58:54;-11.71;89.34
68248;SHT30;55064;49.636;12.164;2022-12-18T08:01:19;-11.67;89.53
68248;SHT30;55064;49.636;12.164;2022-12-18T08:03:44;-11.66;88.67
68248;SHT30;55064;49.636;12.164;2022-12-18T08:06:10;-11.66;88.77
68248;SHT30;55064;49.636;12.164;2022-12-18T08:08:38;-11.58;88.97
68248;SHT30;55064;49.636;12.164;2022-12-18T08:11:07;-11.63;89.15
68248;SHT30;55064;49.636;12.164;2022-12-18T08:13:35;-11.58;88.91
68248;SHT30;55064;49.636;12.164;2022-12-18T08:16:06;-11.51;88.19
68248;SHT30;55064;49.636;12.164;2022-12-18T08:18:38;-11.54;88.23
68248;SHT30;55064;49.636;12.164;2022-12-18T08:21:10;-11.50;88.35
68248;SHT30;55064;49.636;12.164;2022-12-18T08:23:36;-11.50;88.28
68248;SHT30;55064;49.636;12.164;2022-12-18T08:26:02;-11.47;88.28
68248;SHT30;55064;49.636;12.164;2022-12-18T08:28:33;-11.47;88.49
68248;SHT30;55064;49.636;12.164;2022-12-18T08:31:03;-11.42;88.84
68248;SHT30;55064;49.636;12.164;2022-12-18T08:33:31;-11.38;88.79
68248;SHT30;55064;49.636;12.164;2022-12-18T08:36:00;-11.36;88.72
68248;SHT30;55064;49.636;12.164;2022-12-18T08:38:28;-11.33;88.26
68248;SHT30;55064;49.636;12.164;2022-12-18T08:41:03;-11.30;88.08
68248;SHT30;55064;49.636;12.164;2022-12-18T08:43:34;-11.22;88.58
68248;SHT30;55064;49.636;12.164;2022-12-18T08:46:22;-11.11;88.63
68248;SHT30;55064;49.636;12.164;2022-12-18T08:48:51;-11.14;88.03
68248;SHT30;55064;49.636;12.164;2022-12-18T08:51:17;-11.22;87.82
68248;SHT30;55064;49.636;12.164;2022-12-18T08:53:42;-11.18;88.32
68248;SHT30;55064;49.636;12.164;2022-12-18T08:56:08;-11.02;88.76
68248;SHT30;55064;49.636;12.164;2022-12-18T08:58:33;-10.89;88.85
68248;SHT30;55064;49.636;12.164;2022-12-18T09:01:03;-10.74;88.83
68248;SHT30;55064;49.636;12.164;2022-12-18T09:03:32;-10.53;88.28
68248;SHT30;55064;49.636;12.164;2022-12-18T09:05:58;-10.39;87.65
68248;SHT30;55064;49.636;12.164;2022-12-18T09:08:25;-10.26;87.31
68248;SHT30;55064;49.636;12.164;2022-12-18T09:10:51;-9.98;86.68
68248;SHT30;55064;49.636;12.164;2022-12-18T09:13:19;-9.88;85.05
68248;SHT30;55064;49.636;12.164;2022-12-18T09:15:50;-9.71;85.41
68248;SHT30;55064;49.636;12.164;2022-12-18T09:18:17;-9.57;85.31
68248;SHT30;55064;49.636;12.164;2022-12-18T09:20:44;-9.43;84.83
68248;SHT30;55064;49.636;12.164;2022-12-18T09:23:12;-9.25;84.98
68248;SHT30;55064;49.636;12.164;2022-12-18T09:25:38;-9.08;84.33
68248;SHT30;55064;49.636;12.164;2022-12-18T09:28:06;-8.90;84.26
68248;SHT30;55064;49.636;12.164;2022-12-18T09:30:37;-8.74;83.89
68248;SHT30;55064;49.636;12.164;2022-12-18T09:33:03;-8.73;83.33
68248;SHT30;55064;49.636;12.164;2022-12-18T09:35:28;-8.59;83.26
68248;SHT30;55064;49.636;12.164;2022-12-18T09:37:56;-8.67;81.81
68248;SHT30;55064;49.636;12.164;2022-12-18T09:40:34;-8.64;82.33
68248;SHT30;55064;49.636;12.164;2022-12-18T09:43:04;-8.49;81.75
68248;SHT30;55064;49.636;12.164;2022-12-18T09:45:41;-8.32;82.85
68248;SHT30;55064;49.636;12.164;2022-12-18T09:48:14;-8.08;81.75
68248;SHT30;55064;49.636;12.164;2022-12-18T09:50:44;-8.04;81.23
68248;SHT30;55064;49.636;12.164;2022-12-18T09:53:18;-7.89;80.43
68248;SHT30;55064;49.636;12.164;2022-12-18T09:55:48;-7.76;80.17
68248;SHT30;55064;49.636;12.164;2022-12-18T09:58:26;-7.52;79.88
68248;SHT30;55064;49.636;12.164;2022-12-18T10:00:53;-7.42;79.98
68248;SHT30;55064;49.636;12.164;2022-12-18T10:03:22;-7.32;78.60
68248;SHT30;55064;49.636;12.164;2022-12-18T10:08:54;-7.00;78.37
68248;SHT30;55064;49.636;12.164;2022-12-18T10:13:56;-6.70;77.61
68248;SHT30;55064;49.636;12.164;2022-12-18T10:16:31;-6.70;78.02
68248;SHT30;55064;49.636;12.164;2022-12-18T10:19:52;-6.53;77.89
68248;SHT30;55064;49.636;12.164;2022-12-18T10:25:34;-6.41;77.59
68248;SHT30;55064;49.636;12.164;2022-12-18T10:28:10;-6.28;77.19
68248;SHT30;55064;49.636;12.164;2022-12-18T10:30:39;-6.31;76.97
68248;SHT30;55064;49.636;12.164;2022-12-18T10:33:04;-6.25;77.36
68248;SHT30;55064;49.636;12.164;2022-12-18T10:35:30;-6.22;76.83
68248;SHT30;55064;49.636;12.164;2022-12-18T10:40:50;-6.03;76.18
68248;SHT30;55064;49.636;12.164;2022-12-18T10:43:20;-6.28;76.81
68248;SHT30;55064;49.636;12.164;2022-12-18T10:53:56;-6.21;77.37
68248;SHT30;55064;49.636;12.164;2022-12-18T10:56:24;-6.41;78.04
68248;SHT30;55064;49.636;12.164;2022-12-18T10:58:58;-6.18;77.57
68248;SHT30;55064;49.636;12.164;2022-12-18T11:01:26;-6.35;78.23
68248;SHT30;55064;49.636;12.164;2022-12-18T11:06:23;-6.46;78.88
68248;SHT30;55064;49.636;12.164;2022-12-18T11:09:05;-6.34;78.99
68248;SHT30;55064;49.636;12.164;2022-12-18T11:11:32;-6.43;79.44
68248;SHT30;55064;49.636;12.164;2022-12-18T11:14:04;-6.42;78.95
68248;SHT30;55064;49.636;12.164;2022-12-18T11:16:37;-6.32;79.07
68248;SHT30;55064;49.636;12.164;2022-12-18T11:21:52;-6.36;79.77
68248;SHT30;55064;49.636;12.164;2022-12-18T11:24:36;-6.18;79.69
68248;SHT30;55064;49.636;12.164;2022-12-18T11:27:16;-6.29;78.47
68248;SHT30;55064;49.636;12.164;2022-12-18T11:29:43;-6.24;80.81
68248;SHT30;55064;49.636;12.164;2022-12-18T11:34:58;-5.89;79.98
68248;SHT30;55064;49.636;12.164;2022-12-18T11:37:26;-5.60;78.78
68248;SHT30;55064;49.636;12.164;2022-12-18T11:40:01;-5.41;77.19
68248;SHT30;55064;49.636;12.164;2022-12-18T11:42:48;-5.42;77.99
68248;SHT30;55064;49.636;12.164;2022-12-18T11:45:28;-5.25;77.97
68248;SHT30;55064;49.636;12.164;2022-12-18T11:53:13;-5.10;77.60
68248;SHT30;55064;49.636;12.164;2022-12-18T12:06:49;-4.41;75.70
68248;SHT30;55064;49.636;12.164;2022-12-18T12:22:23;-4.08;75.74
68248;SHT30;55064;49.636;12.164;2022-12-18T12:27:57;-3.73;74.30
68248;SHT30;55064;49.636;12.164;2022-12-18T12:39:22;-4.24;76.51
68248;SHT30;55064;49.636;12.164;2022-12-18T12:41:48;-4.31;75.37
68248;SHT30;55064;49.636;12.164;2022-12-18T12:44:43;-4.29;75.88
68248;SHT30;55064;49.636;12.164;2022-12-18T12:47:31;-4.38;76.52
68248;SHT30;55064;49.636;12.164;2022-12-18T12:50:02;-4.42;77.60
68248;SHT30;55064;49.636;12.164;2022-12-18T12:52:55;-4.46;77.38
68248;SHT30;55064;49.636;12.164;2022-12-18T12:55:27;-4.44;77.31
68248;SHT30;55064;49.636;12.164;2022-12-18T12:57:59;-4.61;78.09
68248;SHT30;55064;49.636;12.164;2022-12-18T13:00:36;-4.66;78.61
68248;SHT30;55064;49.636;12.164;2022-12-18T13:03:27;-4.71;78.75
68248;SHT30;55064;49.636;12.164;2022-12-18T13:06:00;-4.68;78.81
68248;SHT30;55064;49.636;12.164;2022-12-18T13:08:32;-4.65;77.59
68248;SHT30;55064;49.636;12.164;2022-12-18T13:14:29;-4.89;78.97
68248;SHT30;55064;49.636;12.164;2022-12-18T13:19:39;-5.08;79.15
68248;SHT30;55064;49.636;12.164;2022-12-18T13:22:24;-5.18;80.29
68248;SHT30;55064;49.636;12.164;2022-12-18T13:24:52;-5.13;80.52
68248;SHT30;55064;49.636;12.164;2022-12-18T13:38:23;-4.94;82.94
68248;SHT30;55064;49.636;12.164;2022-12-18T13:48:29;-5.38;84.41
68248;SHT30;55064;49.636;12.164;2022-12-18T13:51:05;-5.38;84.42
68248;SHT30;55064;49.636;12.164;2022-12-18T13:53:35;-5.48;84.49
68248;SHT30;55064;49.636;12.164;2022-12-18T13:56:03;-5.52;84.48
68248;SHT30;55064;49.636;12.164;2022-12-18T13:58:29;-5.62;84.75
68248;SHT30;55064;49.636;12.164;2022-12-18T14:00:54;-5.65;84.82
68248;SHT30;55064;49.636;12.164;2022-12-18T14:03:26;-5.69;84.76
68248;SHT30;55064;49.636;12.164;2022-12-18T14:05:56;-5.72;85.22
68248;SHT30;55064;49.636;12.164;2022-12-18T14:08:29;-5.76;85.16
68248;SHT30;55064;49.636;12.164;2022-12-18T14:10:58;-5.72;84.98
68248;SHT30;55064;49.636;12.164;2022-12-18T14:13:40;-5.76;85.04
68248;SHT30;55064;49.636;12.164;2022-12-18T14:16:07;-5.73;84.70
68248;SHT30;55064;49.636;12.164;2022-12-18T14:18:45;-5.70;84.95
68248;SHT30;55064;49.636;12.164;2022-12-18T14:26:36;-6.10;85.53
68248;SHT30;55064;49.636;12.164;2022-12-18T14:32:05;-6.18;85.62
68248;SHT30;55064;49.636;12.164;2022-12-18T14:34:31;-6.18;85.40
68248;SHT30;55064;49.636;12.164;2022-12-18T14:36:57;-6.28;85.36
68248;SHT30;55064;49.636;12.164;2022-12-18T14:39:22;-6.39;85.86
68248;SHT30;55064;49.636;12.164;2022-12-18T14:41:50;-6.52;86.37
68248;SHT30;55064;49.636;12.164;2022-12-18T14:44:21;-6.49;86.31
68248;SHT30;55064;49.636;12.164;2022-12-18T14:46:50;-6.68;86.44
68248;SHT30;55064;49.636;12.164;2022-12-18T14:49:26;-6.69;86.86
68248;SHT30;55064;49.636;12.164;2022-12-18T14:51:58;-6.79;86.74
68248;SHT30;55064;49.636;12.164;2022-12-18T14:54:27;-6.89;86.70
68248;SHT30;55064;49.636;12.164;2022-12-18T14:59:41;-7.01;86.93
68248;SHT30;55064;49.636;12.164;2022-12-18T15:04:41;-7.11;87.15
68248;SHT30;55064;49.636;12.164;2022-12-18T15:07:12;-7.12;87.11
68248;SHT30;55064;49.636;12.164;2022-12-18T15:09:40;-7.25;87.51
68248;SHT30;55064;49.636;12.164;2022-12-18T15:12:43;-7.32;87.52
68248;SHT30;55064;49.636;12.164;2022-12-18T15:25:47;-7.59;88.41
68248;SHT30;55064;49.636;12.164;2022-12-18T15:28:19;-7.62;88.61
68248;SHT30;55064;49.636;12.164;2022-12-18T15:33:30;-7.73;88.94
68248;SHT30;55064;49.636;12.164;2022-12-18T15:36:03;-7.70;88.91
68248;SHT30;55064;49.636;12.164;2022-12-18T15:38:28;-7.70;88.65
68248;SHT30;55064;49.636;12.164;2022-12-18T15:40:57;-7.80;88.47
68248;SHT30;55064;49.636;12.164;2022-12-18T15:43:25;-7.84;88.73
68248;SHT30;55064;49.636;12.164;2022-12-18T15:46:05;-7.90;89.14
68248;SHT30;55064;49.636;12.164;2022-12-18T15:48:33;-7.90;89.03
68248;SHT30;55064;49.636;12.164;2022-12-18T15:50:59;-7.90;89.12
68248;SHT30;55064;49.636;12.164;2022-12-18T15:53:30;-7.91;89.00
68248;SHT30;55064;49.636;12.164;2022-12-18T15:55:57;-7.91;89.21
68248;SHT30;55064;49.636;12.164;2022-12-18T15:58:42;-7.86;89.08
68248;SHT30;55064;49.636;12.164;2022-12-18T16:01:10;-7.94;89.11
68248;SHT30;55064;49.636;12.164;2022-12-18T16:03:36;-7.93;89.35
68248;SHT30;55064;49.636;12.164;2022-12-18T16:06:02;-7.90;89.22
68248;SHT30;55064;49.636;12.164;2022-12-18T16:08:32;-7.90;89.17
68248;SHT30;55064;49.636;12.164;2022-12-18T16:10:57;-7.87;89.24
68248;SHT30;55064;49.636;12.164;2022-12-18T16:13:27;-7.87;89.11
68248;SHT30;55064;49.636;12.164;2022-12-18T16:15:53;-7.84;89.31
68248;SHT30;55064;49.636;12.164;2022-12-18T16:18:18;-7.86;89.66
68248;SHT30;55064;49.636;12.164;2022-12-18T16:20:47;-7.84;89.65
68248;SHT30;55064;49.636;12.164;2022-12-18T16:23:15;-7.84;89.71
68248;SHT30;55064;49.636;12.164;2022-12-18T16:25:40;-7.83;89.55
68248;SHT30;55064;49.636;12.164;2022-12-18T16:28:08;-7.83;89.57
68248;SHT30;55064;49.636;12.164;2022-12-18T16:30:36;-7.82;89.80
68248;SHT30;55064;49.636;12.164;2022-12-18T16:33:01;-7.80;89.70
68248;SHT30;55064;49.636;12.164;2022-12-18T16:35:29;-7.79;89.81
68248;SHT30;55064;49.636;12.164;2022-12-18T16:37:57;-7.79;89.64
68248;SHT30;55064;49.636;12.164;2022-12-18T16:40:23;-7.84;90.06
68248;SHT30;55064;49.636;12.164;2022-12-18T16:42:50;-7.76;89.80
68248;SHT30;55064;49.636;12.164;2022-12-18T16:45:19;-7.77;89.81
68248;SHT30;55064;49.636;12.164;2022-12-18T16:47:47;-7.82;90.21
68248;SHT30;55064;49.636;12.164;2022-12-18T16:50:12;-7.86;90.07
68248;SHT30;55064;49.636;12.164;2022-12-18T16:52:38;-7.84;90.20
68248;SHT30;55064;49.636;12.164;2022-12-18T16:55:04;-7.83;90.04
68248;SHT30;55064;49.636;12.164;2022-12-18T16:57:32;-7.80;89.89
68248;SHT30;55064;49.636;12.164;2022-12-18T16:59:58;-7.77;89.98
68248;SHT30;55064;49.636;12.164;2022-12-18T17:02:26;-7.77;89.89
68248;SHT30;55064;49.636;12.164;2022-12-18T17:04:57;-7.79;89.97
68248;SHT30;55064;49.636;12.164;2022-12-18T17:07:24;-7.84;90.21
68248;SHT30;55064;49.636;12.164;2022-12-18T17:09:53;-7.79;90.21
68248;SHT30;55064;49.636;12.164;2022-12-18T17:12:21;-7.82;90.41
68248;SHT30;55064;49.636;12.164;2022-12-18T17:14:49;-7.80;90.25
68248;SHT30;55064;49.636;12.164;2022-12-18T17:17:15;-7.82;90.18
68248;SHT30;55064;49.636;12.164;2022-12-18T17:19:44;-7.87;90.40
68248;SHT30;55064;49.636;12.164;2022-12-18T17:22:12;-7.86;90.64
68248;SHT30;55064;49.636;12.164;2022-12-18T17:24:40;-7.76;90.20
68248;SHT30;55064;49.636;12.164;2022-12-18T17:27:08;-7.77;90.27
68248;SHT30;55064;49.636;12.164;2022-12-18T17:29:33;-7.79;90.53
68248;SHT30;55064;49.636;12.164;2022-12-18T17:32:02;-7.80;90.37
68248;SHT30;55064;49.636;12.164;2022-12-18T17:34:27;-7.80;90.43
68248;SHT30;55064;49.636;12.164;2022-12-18T17:36:55;-7.84;90.51
68248;SHT30;55064;49.636;12.164;2022-12-18T17:39:21;-7.82;90.49
68248;SHT30;55064;49.636;12.164;2022-12-18T17:41:49;-7.84;90.61
68248;SHT30;55064;49.636;12.164;2022-12-18T17:44:17;-7.82;90.51
68248;SHT30;55064;49.636;12.164;2022-12-18T17:46:42;-7.82;90.62
68248;SHT30;55064;49.636;12.164;2022-12-18T17:49:10;-7.82;90.70